createdAt,value
2022-07-27T00:00:07.061Z,4.57
2022-07-27T00:05:14.890Z,4.47
2022-07-27T00:10:17.817Z,4.60
2022-07-27T00:15:20.487Z,3.78
2022-07-27T00:20:27.262Z,4.30
2022-07-27T00:25:30.358Z,4.78
2022-07-27T00:30:33.436Z,3.90
2022-07-27T00:35:36.235Z,4.73
2022-07-27T00:40:39.866Z,4.05
2022-07-27T00:45:42.630Z,4.17
2022-07-27T00:50:47.375Z,5.90
2022-07-27T00:55:50.126Z,4.22
2022-07-27T01:00:52.885Z,4.13
2022-07-27T01:05:55.968Z,4.35
2022-07-27T01:10:59.847Z,4.20
2022-07-27T01:16:07.389Z,4.53
2022-07-27T01:21:10.542Z,4.00
2022-07-27T01:26:13.491Z,4.40
2022-07-27T01:31:16.227Z,4.10
2022-07-27T01:36:19.076Z,3.40
2022-07-27T01:41:21.788Z,3.90
2022-07-27T01:46:24.635Z,4.35
2022-07-27T01:51:27.319Z,4.37
2022-07-27T01:56:30.001Z,3.72
2022-07-27T02:01:32.871Z,4.13
2022-07-27T02:06:35.654Z,3.38
2022-07-27T02:11:56.691Z,3.60
2022-07-27T02:16:59.438Z,3.33
2022-07-27T02:22:02.646Z,3.97
2022-07-27T02:27:05.769Z,4.00
2022-07-27T02:32:08.551Z,4.45
2022-07-27T02:37:11.440Z,3.90
2022-07-27T02:42:14.235Z,3.43
2022-07-27T02:47:17.025Z,3.92
2022-07-27T02:52:19.720Z,3.47
2022-07-27T02:57:22.371Z,3.78
2022-07-27T03:02:25.074Z,4.53
2022-07-27T03:07:27.724Z,3.70
2022-07-27T03:12:30.382Z,3.35
2022-07-27T03:17:33.325Z,4.33
2022-07-27T03:22:36.124Z,3.63
2022-07-27T03:27:39.031Z,4.63
2022-07-27T03:32:41.660Z,4.50
2022-07-27T03:37:44.403Z,4.63
2022-07-27T03:42:47.038Z,4.27
2022-07-27T03:47:49.691Z,4.65
2022-07-27T03:52:52.624Z,4.10
2022-07-27T04:00:29.080Z,4.55
2022-07-27T04:05:32.155Z,4.40
2022-07-27T04:10:34.963Z,4.68
2022-07-27T04:15:38.294Z,4.63
2022-07-27T04:20:41.094Z,4.30
2022-07-27T04:25:44.500Z,5.05
2022-07-27T04:30:47.632Z,5.07
2022-07-27T04:35:50.603Z,4.60
2022-07-27T04:40:58.121Z,5.05
2022-07-27T04:46:04.899Z,4.80
2022-07-27T04:51:08.373Z,5.53
2022-07-27T04:56:12.984Z,5.60
2022-07-27T05:01:15.784Z,5.45
2022-07-27T05:06:19.170Z,5.32
2022-07-27T05:11:22.119Z,6.20
2022-07-27T05:16:28.540Z,5.55
2022-07-27T05:21:31.925Z,5.60
2022-07-27T05:26:34.706Z,5.75
2022-07-27T05:31:37.446Z,6.03
2022-07-27T05:36:40.292Z,5.72
2022-07-27T05:41:43.093Z,6.32
2022-07-27T05:46:46.035Z,6.23
2022-07-27T05:51:49.474Z,6.72
2022-07-27T05:56:52.840Z,7.40
2022-07-27T06:01:55.723Z,7.78
2022-07-27T06:07:36.730Z,7.72
2022-07-27T06:12:41.013Z,8.40
2022-07-27T06:17:44.052Z,11.48
2022-07-27T06:22:51.185Z,11.63
2022-07-27T06:27:53.996Z,11.57
2022-07-27T06:32:59.755Z,12.07
2022-07-27T06:38:03.841Z,11.73
2022-07-27T06:43:06.697Z,12.82
2022-07-27T06:48:09.919Z,12.55
2022-07-27T06:53:14.814Z,13.32
2022-07-27T06:58:19.758Z,13.23
2022-07-27T07:03:23.160Z,14.40
2022-07-27T07:08:26.265Z,14.07
2022-07-27T07:13:29.176Z,13.77
2022-07-27T07:18:32.106Z,13.60
2022-07-27T07:23:35.064Z,13.55
2022-07-27T07:28:38.216Z,12.97
2022-07-27T07:33:41.366Z,15.30
2022-07-27T07:38:44.892Z,14.00
2022-07-27T07:43:48.215Z,14.77
2022-07-27T07:48:51.368Z,14.63
2022-07-27T07:53:54.317Z,13.57
2022-07-27T07:58:57.391Z,13.52
2022-07-27T08:04:00.492Z,13.02
2022-07-27T08:09:03.547Z,12.93
2022-07-27T08:14:06.410Z,12.23
2022-07-27T08:19:10.363Z,12.70
2022-07-27T08:24:13.487Z,11.85
2022-07-27T08:29:16.559Z,11.15
2022-07-27T08:34:19.959Z,11.18
2022-07-27T08:39:59.101Z,11.82
2022-07-27T08:44:47.460Z,11.77
2022-07-27T08:49:50.858Z,11.65
2022-07-27T08:54:53.869Z,12.30
2022-07-27T08:59:57.376Z,11.75
2022-07-27T09:05:00.355Z,12.18
2022-07-27T09:10:04.667Z,11.10
2022-07-27T09:15:14.452Z,12.18
2022-07-27T09:20:20.610Z,12.15
2022-07-27T09:26:00.819Z,12.38
2022-07-27T09:30:49.948Z,12.02
2022-07-27T09:36:00.127Z,13.17
2022-07-27T09:41:04.895Z,11.68
2022-07-27T09:46:08.975Z,11.75
2022-07-27T09:51:57.546Z,11.98
2022-07-27T09:56:36.184Z,11.30
2022-07-27T10:01:47.634Z,11.67
2022-07-27T10:07:02.744Z,11.38
2022-07-27T10:12:07.210Z,11.80
2022-07-27T10:17:13.220Z,9.85
2022-07-27T10:22:16.562Z,9.05
2022-07-27T10:27:21.106Z,8.40
2022-07-27T10:32:33.516Z,8.10
2022-07-27T10:37:36.439Z,7.55
2022-07-27T10:42:40.075Z,7.18
2022-07-27T10:47:46.482Z,6.00
2022-07-27T10:52:50.684Z,4.67
2022-07-27T10:57:54.717Z,4.68
2022-07-27T11:02:58.058Z,4.80
2022-07-27T11:13:25.744Z,5.40
2022-07-27T11:18:39.549Z,5.33
2022-07-27T11:23:52.085Z,4.88
2022-07-27T11:28:55.015Z,5.25
2022-07-27T11:34:00.227Z,4.60
2022-07-27T11:39:03.796Z,4.65
2022-07-27T11:44:13.957Z,4.37
2022-07-27T11:49:29.066Z,5.00
2022-07-27T11:54:38.205Z,4.93
2022-07-27T11:59:42.368Z,4.90
2022-07-27T12:04:47.251Z,4.70
2022-07-27T12:09:57.609Z,5.07
2022-07-27T12:15:44.798Z,5.30
2022-07-27T12:20:38.279Z,5.53
2022-07-27T12:25:42.092Z,5.32
2022-07-27T12:30:46.241Z,5.47
2022-07-27T12:35:49.853Z,5.03
2022-07-27T12:41:01.086Z,5.03
2022-07-27T12:46:14.931Z,4.80
2022-07-27T12:51:24.417Z,4.20
2022-07-27T12:56:27.883Z,4.35
2022-07-27T13:01:31.086Z,4.73
2022-07-27T13:06:34.142Z,4.90
2022-07-27T13:11:37.399Z,4.93
2022-07-27T13:16:40.244Z,4.88
2022-07-27T13:21:43.178Z,4.88
2022-07-27T13:26:46.235Z,4.77
2022-07-27T13:31:53.692Z,4.80
2022-07-27T13:36:59.793Z,4.88
2022-07-27T13:42:03.948Z,5.18
2022-07-27T13:47:07.199Z,5.57
2022-07-27T13:52:12.617Z,5.17
2022-07-27T13:57:15.685Z,5.30
2022-07-27T14:02:22.321Z,4.63
2022-07-27T14:07:28.555Z,4.95
2022-07-27T14:12:31.864Z,5.38
2022-07-27T14:17:34.698Z,4.80
2022-07-27T14:22:37.699Z,4.95
2022-07-27T14:27:40.705Z,4.97
2022-07-27T14:32:43.747Z,5.13
2022-07-27T14:37:47.141Z,4.90
2022-07-27T14:42:50.106Z,5.03
2022-07-27T14:47:52.870Z,5.18
2022-07-27T14:52:55.817Z,5.13
2022-07-27T14:57:58.617Z,5.05
2022-07-27T15:03:01.630Z,5.40
2022-07-27T15:08:05.248Z,5.23
2022-07-27T15:13:10.666Z,5.45
2022-07-27T15:18:13.557Z,6.28
2022-07-27T15:23:17.023Z,5.10
2022-07-27T15:28:20.367Z,5.40
2022-07-27T15:33:23.413Z,5.07
2022-07-27T15:38:26.209Z,4.85
2022-07-27T15:43:29.209Z,5.20
2022-07-27T15:48:32.961Z,4.90
2022-07-27T15:53:35.739Z,5.40
2022-07-27T15:58:38.675Z,5.50
2022-07-27T16:03:41.935Z,5.65
2022-07-27T16:08:45.005Z,5.63
2022-07-27T16:13:48.646Z,5.78
2022-07-27T16:18:55.446Z,5.40
2022-07-27T16:23:59.365Z,5.83
2022-07-27T16:29:02.917Z,5.60
2022-07-27T16:34:06.074Z,4.93
2022-07-27T16:39:09.131Z,5.53
2022-07-27T16:44:12.457Z,5.43
2022-07-27T16:49:15.810Z,5.70
2022-07-27T16:54:18.815Z,5.28
2022-07-27T16:59:21.556Z,6.10
2022-07-27T17:04:24.538Z,5.60
2022-07-27T17:09:28.237Z,5.82
2022-07-27T17:14:30.951Z,5.80
2022-07-27T17:19:34.985Z,5.63
2022-07-27T17:24:38.300Z,5.60
2022-07-27T17:29:41.519Z,5.70
2022-07-27T17:34:45.817Z,5.50
2022-07-27T17:39:48.659Z,5.87
2022-07-27T17:44:52.668Z,5.78
2022-07-27T17:49:55.964Z,6.07
2022-07-27T17:54:59.084Z,5.68
2022-07-27T18:00:02.022Z,5.82
2022-07-27T18:05:07.396Z,6.57
2022-07-27T18:10:10.487Z,6.22
2022-07-27T18:15:31.579Z,6.30
2022-07-27T18:20:34.786Z,6.25
2022-07-27T18:25:37.580Z,6.80
2022-07-27T18:30:40.928Z,6.73
2022-07-27T18:35:44.696Z,7.22
2022-07-27T18:40:48.378Z,7.53
2022-07-27T18:45:52.360Z,7.85
2022-07-27T18:50:55.547Z,6.65
2022-07-27T18:55:58.717Z,6.60
2022-07-27T19:01:02.116Z,6.07
2022-07-27T19:06:05.495Z,5.85
2022-07-27T19:11:09.145Z,4.97
2022-07-27T19:16:12.135Z,5.20
2022-07-27T19:21:16.129Z,4.93
2022-07-27T19:26:19.224Z,4.57
2022-07-27T19:31:23.781Z,4.65
2022-07-27T19:36:27.976Z,4.68
2022-07-27T19:41:32.365Z,5.05
2022-07-27T19:46:35.828Z,4.57
2022-07-27T19:51:38.738Z,4.50
2022-07-27T19:56:41.547Z,4.13
2022-07-27T20:01:44.461Z,4.00
2022-07-27T20:06:47.362Z,4.07
2022-07-27T20:11:50.449Z,3.63
2022-07-27T20:16:53.431Z,3.25
2022-07-27T20:21:57.838Z,3.35
2022-07-27T20:27:00.697Z,3.50
2022-07-27T20:32:05.057Z,3.38
2022-07-27T20:37:08.050Z,3.47
2022-07-27T20:42:11.502Z,3.90
2022-07-27T20:47:15.077Z,3.70
2022-07-27T20:52:17.919Z,4.05
2022-07-27T20:57:20.981Z,4.05
2022-07-27T21:02:24.232Z,4.23
2022-07-27T21:07:27.228Z,4.30
2022-07-27T21:12:30.526Z,4.45
2022-07-27T21:17:33.460Z,4.30
2022-07-27T21:22:36.608Z,4.88
2022-07-27T21:27:39.411Z,4.80
2022-07-27T21:32:44.078Z,5.38
2022-07-27T21:37:47.001Z,5.85
2022-07-27T21:42:49.949Z,6.93
2022-07-27T21:47:53.077Z,7.63
2022-07-27T21:52:55.885Z,7.70
2022-07-27T21:57:59.090Z,8.68
2022-07-27T22:03:01.931Z,8.02
2022-07-27T22:08:05.427Z,8.75
2022-07-27T22:13:08.298Z,8.60
2022-07-27T22:18:11.249Z,8.37
2022-07-27T22:23:14.748Z,9.55
2022-07-27T22:28:17.790Z,9.48
2022-07-27T22:33:20.709Z,9.80
2022-07-27T22:38:23.535Z,10.55
2022-07-27T22:43:26.956Z,9.87
2022-07-27T22:48:30.206Z,9.73
2022-07-27T22:53:33.145Z,10.73
2022-07-27T22:58:36.093Z,9.52
2022-07-27T23:03:38.925Z,9.23
2022-07-27T23:08:44.205Z,7.83
2022-07-27T23:14:07.678Z,6.60
2022-07-27T23:19:10.961Z,6.50
2022-07-27T23:24:14.421Z,6.82
2022-07-27T23:29:17.630Z,6.78
2022-07-27T23:34:20.416Z,6.17
2022-07-27T23:39:23.395Z,5.57
2022-07-27T23:44:26.320Z,5.53
2022-07-27T23:49:29.175Z,5.00
2022-07-27T23:54:32.059Z,5.20
2022-07-27T23:59:36.022Z,4.90
